createdAt,value
2018-10-05T02:41:58.701Z,68.10
2018-10-05T02:44:33.139Z,68.20
2018-10-05T02:47:31.174Z,68.10
2018-10-05T02:50:06.583Z,68.30
2018-10-05T05:15:10.232Z,68.80
2018-10-05T05:21:12.802Z,69.10
2018-10-05T05:26:44.281Z,69.50
2018-10-05T05:29:16.920Z,69.60
2018-10-05T05:34:46.714Z,69.80
2018-10-05T05:37:22.570Z,69.70
2018-10-05T05:40:04.273Z,69.80
2018-10-05T05:45:36.844Z,69.70
2018-10-05T06:22:54.935Z,69.50
2018-10-05T06:34:39.869Z,68.40
2018-10-05T06:37:09.538Z,68.10
2018-10-05T06:39:41.073Z,68.00
2018-10-05T06:42:11.273Z,67.90
2018-10-05T06:44:40.782Z,67.90
2018-10-05T06:47:10.909Z,67.60
2018-10-05T06:49:41.296Z,67.60
2018-10-05T06:52:14.588Z,67.60
2018-10-05T06:54:46.785Z,67.30
2018-10-05T06:57:17.209Z,67.30
2018-10-05T06:59:53.040Z,66.90
2018-10-05T07:02:33.736Z,66.60
2018-10-05T07:05:05.077Z,66.50
2018-10-05T07:07:38.014Z,66.40
2018-10-05T07:10:08.733Z,66.10
2018-10-05T07:12:39.227Z,65.80
2018-10-05T07:15:10.586Z,65.80
2018-10-05T07:17:42.043Z,65.70
2018-10-05T07:20:12.610Z,65.50
2018-10-05T07:22:50.001Z,65.50
2018-10-05T07:25:21.394Z,65.90
2018-10-05T07:27:53.601Z,65.10
2018-10-05T07:30:24.731Z,64.90
2018-10-05T07:33:00.298Z,64.70
2018-10-05T07:35:37.567Z,64.50
2018-10-05T07:38:10.579Z,64.40
2018-10-05T07:40:44.934Z,64.30
2018-10-05T07:43:15.965Z,64.70
2018-10-05T07:45:46.024Z,63.80
2018-10-05T07:48:20.950Z,63.60
2018-10-05T07:50:52.612Z,63.40
2018-10-05T07:53:23.121Z,63.20
2018-10-05T07:56:44.982Z,63.80
2018-10-05T07:59:14.871Z,63.10
2018-10-05T08:01:51.738Z,62.60
2018-10-05T08:04:21.459Z,62.40
2018-10-05T08:06:51.477Z,62.90
2018-10-05T08:09:22.181Z,62.10
2018-10-05T08:12:06.144Z,62.00
2018-10-05T08:14:38.308Z,61.60
2018-10-05T08:17:13.441Z,61.10
2018-10-05T08:19:52.540Z,60.80
2018-10-05T08:22:42.511Z,60.60
2018-10-05T08:25:19.584Z,60.50
2018-10-05T08:27:53.836Z,60.40
2018-10-05T08:30:35.138Z,60.10
2018-10-05T08:33:21.633Z,59.90
2018-10-05T08:35:53.632Z,59.80
2018-10-05T08:38:23.986Z,59.60
2018-10-05T08:40:53.685Z,59.90
2018-10-05T08:43:29.815Z,59.00
2018-10-05T08:46:07.717Z,58.90
2018-10-05T08:48:44.279Z,58.60
2018-10-05T08:51:31.762Z,58.50
2018-10-05T08:57:22.586Z,58.00
2018-10-05T09:41:25.592Z,57.40
2018-10-05T09:44:07.903Z,57.40
2018-10-05T09:47:42.179Z,56.70
2018-10-05T09:50:18.449Z,56.40
2018-10-05T09:53:11.650Z,55.90
2018-10-05T09:56:06.042Z,55.70
2018-10-05T09:58:50.404Z,55.40
2018-10-05T10:01:37.418Z,55.10
2018-10-05T10:28:23.695Z,54.60
2018-10-05T10:30:55.813Z,53.90
2018-10-05T10:33:36.148Z,52.40
2018-10-05T10:36:10.841Z,52.00
2018-10-05T10:38:49.017Z,51.70
2018-10-05T10:41:38.349Z,51.30
2018-10-05T10:44:23.918Z,50.90
2018-10-05T10:47:19.716Z,50.70
2018-10-05T10:52:58.376Z,50.40
2018-10-05T10:56:22.469Z,50.20
2018-10-05T10:59:04.728Z,49.80
2018-10-05T11:01:39.395Z,49.20
2018-10-05T11:04:23.391Z,49.10
2018-10-05T11:07:41.363Z,48.90
2018-10-05T11:13:26.024Z,48.20
2018-10-05T11:16:01.906Z,48.00
2018-10-05T11:22:13.500Z,48.20
2018-10-05T11:35:23.091Z,47.50
2018-10-05T11:38:35.705Z,48.00
2018-10-05T11:41:18.609Z,47.60
2018-10-05T11:44:06.078Z,47.10
2018-10-05T11:52:35.314Z,47.00
2018-10-05T11:55:13.944Z,46.70
2018-10-05T11:58:12.106Z,46.40
2018-10-05T12:00:52.575Z,46.40
2018-10-05T12:03:34.744Z,46.40
2018-10-05T12:06:14.722Z,46.10
2018-10-05T12:08:47.578Z,46.00
2018-10-05T12:11:53.388Z,46.10
2018-10-05T12:14:26.075Z,46.00
2018-10-05T12:17:03.607Z,45.90
2018-10-05T12:22:53.905Z,45.80
2018-10-05T12:25:30.492Z,45.70
2018-10-05T12:28:11.884Z,45.60
2018-10-05T12:30:43.925Z,45.60
2018-10-05T12:33:15.621Z,45.40
2018-10-05T12:35:51.856Z,45.20
2018-10-05T12:38:33.651Z,45.30
2018-10-05T12:41:19.876Z,45.00
2018-10-05T12:43:50.715Z,44.60
2018-10-05T12:46:23.598Z,44.70
2018-10-05T12:48:54.200Z,44.70
2018-10-05T12:51:33.719Z,44.60
2018-10-05T12:54:07.976Z,44.00
2018-10-05T12:56:48.121Z,44.10
2018-10-05T13:02:15.888Z,44.20
2018-10-05T13:08:12.608Z,43.60
2018-10-05T13:11:19.584Z,43.50
2018-10-05T13:13:52.678Z,43.30
2018-10-05T13:16:33.959Z,43.00
2018-10-05T13:19:07.403Z,42.40
2018-10-05T13:21:57.481Z,42.00
2018-10-05T13:24:32.108Z,41.50
2018-10-05T13:27:04.097Z,41.10
2018-10-05T13:29:37.122Z,40.70
2018-10-05T13:32:08.886Z,40.10
2018-10-05T13:37:35.185Z,40.40
2018-10-05T13:40:15.090Z,40.30
2018-10-05T13:42:46.797Z,40.10
2018-10-05T13:45:18.574Z,39.40
2018-10-05T14:02:29.508Z,39.40
2018-10-05T14:05:03.656Z,39.90
2018-10-05T14:07:36.878Z,39.40
2018-10-05T14:10:08.666Z,39.10
2018-10-05T14:12:39.604Z,38.70
2018-10-05T14:15:15.156Z,38.40
2018-10-05T14:17:46.121Z,38.30
2018-10-05T14:20:16.730Z,38.10
2018-10-05T14:22:49.627Z,38.00
2018-10-05T14:25:23.491Z,38.00
2018-10-05T14:27:55.614Z,37.90
2018-10-05T14:30:27.622Z,37.70
2018-10-05T14:33:03.274Z,37.60
2018-10-05T14:35:39.058Z,37.60
2018-10-05T14:38:13.162Z,37.70
2018-10-05T14:40:43.305Z,37.50
2018-10-05T14:43:20.853Z,37.60
2018-10-05T14:46:04.728Z,37.80
2018-10-05T14:48:40.733Z,37.90
2018-10-05T14:54:53.730Z,37.50
2018-10-05T14:57:32.153Z,38.00
2018-10-05T15:00:18.438Z,37.60
2018-10-05T15:02:56.446Z,37.70
2018-10-05T15:05:43.120Z,37.70
2018-10-05T15:08:46.362Z,37.50
2018-10-05T15:11:23.831Z,37.40
2018-10-05T15:14:15.242Z,37.50
2018-10-05T15:16:56.334Z,37.70
2018-10-05T15:19:29.004Z,37.80
2018-10-05T15:22:06.570Z,37.90
2018-10-05T15:24:41.513Z,38.10
2018-10-05T15:27:32.697Z,38.20
2018-10-05T15:30:21.509Z,38.30
2018-10-05T15:35:58.915Z,38.60
2018-10-05T15:38:42.926Z,38.70
2018-10-05T15:41:19.119Z,38.90
2018-10-05T15:44:15.201Z,39.00
2018-10-05T15:47:07.710Z,39.20
2018-10-05T16:43:06.332Z,40.80
2018-10-05T16:45:39.076Z,42.60
2018-10-05T16:48:10.442Z,43.10
2018-10-05T21:04:40.873Z,52.90
2018-10-05T21:07:28.600Z,53.50
2018-10-05T21:10:17.797Z,54.50
2018-10-05T22:12:05.052Z,55.50
2018-10-05T22:15:55.162Z,55.40
2018-10-05T22:22:01.837Z,56.10
2018-10-05T22:28:13.701Z,56.80
2018-10-05T22:54:31.387Z,57.30
2018-10-05T23:53:11.490Z,56.60
2018-10-05T23:56:55.229Z,57.70
